sensor_id;sensor_type;location;lat;lon;timestamp;P1;durP1;ratioP1;P2;durP2;ratioP2
69188;SDS011;56302;52.322;5.926;2022-12-17T00:02:19;46.55;;;16.80;;
69188;SDS011;56302;52.322;5.926;2022-12-17T00:05:03;45.28;;;16.23;;
69188;SDS011;56302;52.322;5.926;2022-12-17T00:07:54;41.75;;;15.95;;
69188;SDS011;56302;52.322;5.926;2022-12-17T00:10:39;46.37;;;16.20;;
69188;SDS011;56302;52.322;5.926;2022-12-17T00:13:23;43.38;;;15.25;;
69188;SDS011;56302;52.322;5.926;2022-12-17T00:16:07;43.10;;;16.65;;
69188;SDS011;56302;52.322;5.926;2022-12-17T00:18:51;41.75;;;15.43;;
69188;SDS011;56302;52.322;5.926;2022-12-17T00:21:35;41.13;;;14.88;;
69188;SDS011;56302;52.322;5.926;2022-12-17T00:24:19;38.53;;;16.23;;
69188;SDS011;56302;52.322;5.926;2022-12-17T00:27:03;42.05;;;16.10;;
69188;SDS011;56302;52.322;5.926;2022-12-17T00:29:47;43.95;;;15.27;;
69188;SDS011;56302;52.322;5.926;2022-12-17T00:32:31;36.97;;;14.50;;
69188;SDS011;56302;52.322;5.926;2022-12-17T00:35:15;44.97;;;14.93;;
69188;SDS011;56302;52.322;5.926;2022-12-17T00:37:59;38.67;;;15.40;;
69188;SDS011;56302;52.322;5.926;2022-12-17T00:40:43;44.30;;;15.85;;
69188;SDS011;56302;52.322;5.926;2022-12-17T00:43:32;42.08;;;15.55;;
69188;SDS011;56302;52.322;5.926;2022-12-17T00:46:16;41.88;;;15.38;;
69188;SDS011;56302;52.322;5.926;2022-12-17T00:49:00;36.38;;;14.82;;
69188;SDS011;56302;52.322;5.926;2022-12-17T00:51:44;34.77;;;14.03;;
69188;SDS011;56302;52.322;5.926;2022-12-17T00:54:29;35.15;;;14.63;;
69188;SDS011;56302;52.322;5.926;2022-12-17T00:57:13;39.90;;;14.65;;
69188;SDS011;56302;52.322;5.926;2022-12-17T00:59:57;40.90;;;15.68;;
69188;SDS011;56302;52.322;5.926;2022-12-17T01:02:41;35.58;;;14.90;;
69188;SDS011;56302;52.322;5.926;2022-12-17T01:05:25;36.67;;;14.83;;
69188;SDS011;56302;52.322;5.926;2022-12-17T01:08:20;36.63;;;14.68;;
69188;SDS011;56302;52.322;5.926;2022-12-17T01:11:05;36.53;;;14.32;;
69188;SDS011;56302;52.322;5.926;2022-12-17T01:13:50;43.92;;;14.68;;
69188;SDS011;56302;52.322;5.926;2022-12-17T01:16:35;35.33;;;14.57;;
69188;SDS011;56302;52.322;5.926;2022-12-17T01:19:19;38.00;;;15.07;;
69188;SDS011;56302;52.322;5.926;2022-12-17T01:22:04;39.83;;;15.05;;
69188;SDS011;56302;52.322;5.926;2022-12-17T01:24:48;36.85;;;15.13;;
69188;SDS011;56302;52.322;5.926;2022-12-17T01:27:32;34.85;;;14.35;;
69188;SDS011;56302;52.322;5.926;2022-12-17T01:30:16;38.53;;;14.60;;
69188;SDS011;56302;52.322;5.926;2022-12-17T01:33:04;33.90;;;14.40;;
69188;SDS011;56302;52.322;5.926;2022-12-17T01:35:54;34.97;;;13.77;;
69188;SDS011;56302;52.322;5.926;2022-12-17T01:38:39;33.92;;;14.27;;
69188;SDS011;56302;52.322;5.926;2022-12-17T01:41:24;37.97;;;14.88;;
69188;SDS011;56302;52.322;5.926;2022-12-17T01:47:29;35.80;;;14.93;;
69188;SDS011;56302;52.322;5.926;2022-12-17T01:50:31;36.65;;;14.60;;
69188;SDS011;56302;52.322;5.926;2022-12-17T01:53:18;39.88;;;15.48;;
69188;SDS011;56302;52.322;5.926;2022-12-17T01:56:06;36.38;;;14.93;;
69188;SDS011;56302;52.322;5.926;2022-12-17T01:58:51;37.15;;;14.95;;
69188;SDS011;56302;52.322;5.926;2022-12-17T02:01:37;38.10;;;14.70;;
69188;SDS011;56302;52.322;5.926;2022-12-17T02:04:22;34.58;;;15.13;;
69188;SDS011;56302;52.322;5.926;2022-12-17T02:13:20;38.38;;;15.48;;
69188;SDS011;56302;52.322;5.926;2022-12-17T02:16:18;35.47;;;15.33;;
69188;SDS011;56302;52.322;5.926;2022-12-17T02:19:13;39.22;;;15.60;;
69188;SDS011;56302;52.322;5.926;2022-12-17T02:25:32;37.53;;;15.20;;
69188;SDS011;56302;52.322;5.926;2022-12-17T02:28:23;40.67;;;16.67;;
69188;SDS011;56302;52.322;5.926;2022-12-17T02:31:08;41.33;;;15.83;;
69188;SDS011;56302;52.322;5.926;2022-12-17T02:33:53;37.50;;;16.08;;
69188;SDS011;56302;52.322;5.926;2022-12-17T02:36:39;39.65;;;16.35;;
69188;SDS011;56302;52.322;5.926;2022-12-17T02:39:23;38.53;;;15.80;;
69188;SDS011;56302;52.322;5.926;2022-12-17T02:42:07;37.63;;;16.60;;
69188;SDS011;56302;52.322;5.926;2022-12-17T02:44:51;39.17;;;16.23;;
69188;SDS011;56302;52.322;5.926;2022-12-17T02:47:36;37.10;;;16.45;;
69188;SDS011;56302;52.322;5.926;2022-12-17T02:50:21;35.75;;;16.13;;
69188;SDS011;56302;52.322;5.926;2022-12-17T02:53:05;39.47;;;16.98;;
69188;SDS011;56302;52.322;5.926;2022-12-17T02:55:49;40.70;;;16.83;;
69188;SDS011;56302;52.322;5.926;2022-12-17T02:58:34;36.97;;;15.57;;
69188;SDS011;56302;52.322;5.926;2022-12-17T03:01:18;43.17;;;17.30;;
69188;SDS011;56302;52.322;5.926;2022-12-17T03:04:02;38.53;;;16.90;;
69188;SDS011;56302;52.322;5.926;2022-12-17T03:06:46;40.65;;;16.23;;
69188;SDS011;56302;52.322;5.926;2022-12-17T03:09:30;40.70;;;16.55;;
69188;SDS011;56302;52.322;5.926;2022-12-17T03:12:14;40.13;;;16.07;;
69188;SDS011;56302;52.322;5.926;2022-12-17T03:14:58;42.72;;;18.00;;
69188;SDS011;56302;52.322;5.926;2022-12-17T03:17:42;38.85;;;16.83;;
69188;SDS011;56302;52.322;5.926;2022-12-17T03:20:26;38.10;;;16.98;;
69188;SDS011;56302;52.322;5.926;2022-12-17T03:23:10;43.58;;;16.88;;
69188;SDS011;56302;52.322;5.926;2022-12-17T03:25:59;39.30;;;17.07;;
69188;SDS011;56302;52.322;5.926;2022-12-17T03:28:44;41.63;;;16.35;;
69188;SDS011;56302;52.322;5.926;2022-12-17T03:31:28;39.22;;;16.05;;
69188;SDS011;56302;52.322;5.926;2022-12-17T03:34:12;41.15;;;16.25;;
69188;SDS011;56302;52.322;5.926;2022-12-17T03:36:56;37.28;;;16.60;;
69188;SDS011;56302;52.322;5.926;2022-12-17T03:39:40;37.87;;;17.33;;
69188;SDS011;56302;52.322;5.926;2022-12-17T03:42:24;38.67;;;17.70;;
69188;SDS011;56302;52.322;5.926;2022-12-17T03:45:08;38.20;;;16.27;;
69188;SDS011;56302;52.322;5.926;2022-12-17T03:48:03;38.53;;;18.33;;
69188;SDS011;56302;52.322;5.926;2022-12-17T03:50:52;41.28;;;17.20;;
69188;SDS011;56302;52.322;5.926;2022-12-17T03:53:37;37.27;;;16.30;;
69188;SDS011;56302;52.322;5.926;2022-12-17T03:56:21;41.03;;;17.58;;
69188;SDS011;56302;52.322;5.926;2022-12-17T03:59:06;35.88;;;15.98;;
69188;SDS011;56302;52.322;5.926;2022-12-17T04:01:50;37.47;;;16.05;;
69188;SDS011;56302;52.322;5.926;2022-12-17T04:04:34;41.38;;;16.20;;
69188;SDS011;56302;52.322;5.926;2022-12-17T04:07:18;38.67;;;16.80;;
69188;SDS011;56302;52.322;5.926;2022-12-17T04:10:02;39.30;;;17.13;;
69188;SDS011;56302;52.322;5.926;2022-12-17T04:12:47;37.40;;;17.15;;
69188;SDS011;56302;52.322;5.926;2022-12-17T04:15:51;38.80;;;17.45;;
69188;SDS011;56302;52.322;5.926;2022-12-17T04:18:35;43.78;;;18.75;;
69188;SDS011;56302;52.322;5.926;2022-12-17T04:21:20;41.70;;;17.87;;
69188;SDS011;56302;52.322;5.926;2022-12-17T04:24:04;42.22;;;17.55;;
69188;SDS011;56302;52.322;5.926;2022-12-17T04:26:48;42.28;;;17.80;;
69188;SDS011;56302;52.322;5.926;2022-12-17T04:29:32;41.80;;;16.92;;
69188;SDS011;56302;52.322;5.926;2022-12-17T04:32:16;40.08;;;17.00;;
69188;SDS011;56302;52.322;5.926;2022-12-17T04:35:00;41.63;;;16.97;;
69188;SDS011;56302;52.322;5.926;2022-12-17T04:37:44;38.10;;;16.90;;
69188;SDS011;56302;52.322;5.926;2022-12-17T04:40:28;36.03;;;16.77;;
69188;SDS011;56302;52.322;5.926;2022-12-17T04:43:12;40.28;;;16.88;;
69188;SDS011;56302;52.322;5.926;2022-12-17T04:45:56;42.00;;;17.85;;
69188;SDS011;56302;52.322;5.926;2022-12-17T04:48:40;40.23;;;17.23;;
69188;SDS011;56302;52.322;5.926;2022-12-17T04:51:24;41.63;;;18.00;;
69188;SDS011;56302;52.322;5.926;2022-12-17T04:54:09;42.38;;;17.95;;
69188;SDS011;56302;52.322;5.926;2022-12-17T04:56:53;38.15;;;16.90;;
69188;SDS011;56302;52.322;5.926;2022-12-17T04:59:38;39.17;;;16.58;;
69188;SDS011;56302;52.322;5.926;2022-12-17T05:02:22;44.43;;;17.93;;
69188;SDS011;56302;52.322;5.926;2022-12-17T05:05:06;43.00;;;17.73;;
69188;SDS011;56302;52.322;5.926;2022-12-17T05:07:54;42.40;;;17.35;;
69188;SDS011;56302;52.322;5.926;2022-12-17T05:10:39;41.63;;;17.35;;
69188;SDS011;56302;52.322;5.926;2022-12-17T05:13:24;41.72;;;17.08;;
69188;SDS011;56302;52.322;5.926;2022-12-17T05:16:08;42.40;;;17.80;;
69188;SDS011;56302;52.322;5.926;2022-12-17T05:18:53;39.65;;;16.13;;
69188;SDS011;56302;52.322;5.926;2022-12-17T05:21:37;42.33;;;18.00;;
69188;SDS011;56302;52.322;5.926;2022-12-17T05:24:21;42.90;;;17.67;;
69188;SDS011;56302;52.322;5.926;2022-12-17T05:27:05;43.58;;;17.65;;
69188;SDS011;56302;52.322;5.926;2022-12-17T05:29:50;43.07;;;18.30;;
69188;SDS011;56302;52.322;5.926;2022-12-17T05:32:34;43.70;;;18.33;;
69188;SDS011;56302;52.322;5.926;2022-12-17T05:35:18;46.25;;;18.15;;
69188;SDS011;56302;52.322;5.926;2022-12-17T05:38:05;48.63;;;19.20;;
69188;SDS011;56302;52.322;5.926;2022-12-17T05:40:51;44.70;;;17.83;;
69188;SDS011;56302;52.322;5.926;2022-12-17T05:43:38;42.23;;;17.40;;
69188;SDS011;56302;52.322;5.926;2022-12-17T05:46:22;41.72;;;17.13;;
69188;SDS011;56302;52.322;5.926;2022-12-17T05:49:06;43.70;;;18.27;;
69188;SDS011;56302;52.322;5.926;2022-12-17T05:51:50;42.35;;;17.63;;
69188;SDS011;56302;52.322;5.926;2022-12-17T05:54:34;45.13;;;18.17;;
69188;SDS011;56302;52.322;5.926;2022-12-17T05:57:18;42.63;;;17.87;;
69188;SDS011;56302;52.322;5.926;2022-12-17T06:00:02;47.33;;;17.48;;
69188;SDS011;56302;52.322;5.926;2022-12-17T06:02:47;45.03;;;18.63;;
69188;SDS011;56302;52.322;5.926;2022-12-17T06:05:38;42.47;;;18.05;;
69188;SDS011;56302;52.322;5.926;2022-12-17T06:08:22;46.60;;;18.02;;
69188;SDS011;56302;52.322;5.926;2022-12-17T06:11:07;45.57;;;18.20;;
69188;SDS011;56302;52.322;5.926;2022-12-17T06:14:04;43.08;;;17.52;;
69188;SDS011;56302;52.322;5.926;2022-12-17T06:16:49;46.03;;;17.95;;
69188;SDS011;56302;52.322;5.926;2022-12-17T06:19:33;49.45;;;18.92;;
69188;SDS011;56302;52.322;5.926;2022-12-17T06:22:17;42.22;;;18.17;;
69188;SDS011;56302;52.322;5.926;2022-12-17T06:25:01;39.80;;;16.03;;
69188;SDS011;56302;52.322;5.926;2022-12-17T06:27:45;42.83;;;17.65;;
69188;SDS011;56302;52.322;5.926;2022-12-17T06:30:29;42.85;;;16.85;;
69188;SDS011;56302;52.322;5.926;2022-12-17T06:33:13;45.30;;;16.75;;
69188;SDS011;56302;52.322;5.926;2022-12-17T06:35:57;46.45;;;17.33;;
69188;SDS011;56302;52.322;5.926;2022-12-17T06:38:42;47.27;;;16.93;;
69188;SDS011;56302;52.322;5.926;2022-12-17T06:41:26;44.83;;;18.27;;
69188;SDS011;56302;52.322;5.926;2022-12-17T06:44:10;42.05;;;17.88;;
69188;SDS011;56302;52.322;5.926;2022-12-17T06:46:54;44.10;;;17.50;;
69188;SDS011;56302;52.322;5.926;2022-12-17T06:49:38;42.85;;;18.45;;
69188;SDS011;56302;52.322;5.926;2022-12-17T06:52:22;41.00;;;17.10;;
69188;SDS011;56302;52.322;5.926;2022-12-17T06:55:06;44.78;;;17.58;;
69188;SDS011;56302;52.322;5.926;2022-12-17T06:57:59;45.17;;;18.67;;
69188;SDS011;56302;52.322;5.926;2022-12-17T07:00:44;45.20;;;17.90;;
69188;SDS011;56302;52.322;5.926;2022-12-17T07:03:29;43.10;;;16.70;;
69188;SDS011;56302;52.322;5.926;2022-12-17T07:06:13;44.20;;;16.50;;
69188;SDS011;56302;52.322;5.926;2022-12-17T07:08:57;48.22;;;18.08;;
69188;SDS011;56302;52.322;5.926;2022-12-17T07:11:42;45.30;;;17.83;;
69188;SDS011;56302;52.322;5.926;2022-12-17T07:14:26;46.17;;;17.98;;
69188;SDS011;56302;52.322;5.926;2022-12-17T07:17:10;46.35;;;18.65;;
69188;SDS011;56302;52.322;5.926;2022-12-17T07:19:54;44.10;;;18.17;;
69188;SDS011;56302;52.322;5.926;2022-12-17T07:22:38;49.22;;;18.92;;
69188;SDS011;56302;52.322;5.926;2022-12-17T07:25:22;44.78;;;18.55;;
69188;SDS011;56302;52.322;5.926;2022-12-17T07:28:06;46.17;;;18.70;;
69188;SDS011;56302;52.322;5.926;2022-12-17T07:30:50;48.15;;;18.95;;
69188;SDS011;56302;52.322;5.926;2022-12-17T07:33:34;48.70;;;18.43;;
69188;SDS011;56302;52.322;5.926;2022-12-17T07:36:19;45.08;;;18.63;;
69188;SDS011;56302;52.322;5.926;2022-12-17T07:39:03;48.65;;;18.55;;
69188;SDS011;56302;52.322;5.926;2022-12-17T07:41:47;49.15;;;17.85;;
69188;SDS011;56302;52.322;5.926;2022-12-17T07:44:31;48.13;;;18.63;;
69188;SDS011;56302;52.322;5.926;2022-12-17T07:47:15;48.57;;;19.40;;
69188;SDS011;56302;52.322;5.926;2022-12-17T07:49:59;48.28;;;18.30;;
69188;SDS011;56302;52.322;5.926;2022-12-17T07:52:43;51.40;;;19.42;;
69188;SDS011;56302;52.322;5.926;2022-12-17T07:55:27;48.78;;;20.50;;
69188;SDS011;56302;52.322;5.926;2022-12-17T07:58:11;53.30;;;20.38;;
69188;SDS011;56302;52.322;5.926;2022-12-17T08:00:58;47.67;;;20.20;;
69188;SDS011;56302;52.322;5.926;2022-12-17T08:03:44;48.55;;;19.25;;
69188;SDS011;56302;52.322;5.926;2022-12-17T08:06:28;53.50;;;21.25;;
69188;SDS011;56302;52.322;5.926;2022-12-17T08:09:12;56.50;;;21.75;;
69188;SDS011;56302;52.322;5.926;2022-12-17T08:12:04;55.40;;;21.45;;
69188;SDS011;56302;52.322;5.926;2022-12-17T08:14:48;55.20;;;21.27;;
69188;SDS011;56302;52.322;5.926;2022-12-17T08:17:32;51.42;;;19.75;;
69188;SDS011;56302;52.322;5.926;2022-12-17T08:20:16;52.47;;;20.80;;
69188;SDS011;56302;52.322;5.926;2022-12-17T08:23:01;53.47;;;20.48;;
69188;SDS011;56302;52.322;5.926;2022-12-17T08:25:46;52.83;;;20.73;;
69188;SDS011;56302;52.322;5.926;2022-12-17T08:28:30;48.67;;;19.27;;
69188;SDS011;56302;52.322;5.926;2022-12-17T08:31:14;55.38;;;20.77;;
69188;SDS011;56302;52.322;5.926;2022-12-17T08:33:59;58.70;;;20.98;;
69188;SDS011;56302;52.322;5.926;2022-12-17T08:36:43;56.45;;;20.58;;
69188;SDS011;56302;52.322;5.926;2022-12-17T08:39:27;54.28;;;19.80;;
69188;SDS011;56302;52.322;5.926;2022-12-17T08:42:11;49.13;;;21.30;;
69188;SDS011;56302;52.322;5.926;2022-12-17T08:44:55;52.50;;;21.85;;
69188;SDS011;56302;52.322;5.926;2022-12-17T08:47:39;50.85;;;19.95;;
69188;SDS011;56302;52.322;5.926;2022-12-17T08:50:23;52.92;;;22.13;;
69188;SDS011;56302;52.322;5.926;2022-12-17T08:53:07;54.97;;;20.75;;
69188;SDS011;56302;52.322;5.926;2022-12-17T08:55:51;53.50;;;21.23;;
69188;SDS011;56302;52.322;5.926;2022-12-17T08:58:35;103.15;;;45.17;;
69188;SDS011;56302;52.322;5.926;2022-12-17T09:01:19;70.30;;;30.63;;
69188;SDS011;56302;52.322;5.926;2022-12-17T09:04:03;64.40;;;26.55;;
69188;SDS011;56302;52.322;5.926;2022-12-17T09:06:47;67.53;;;25.88;;
69188;SDS011;56302;52.322;5.926;2022-12-17T09:09:31;56.83;;;22.47;;
69188;SDS011;56302;52.322;5.926;2022-12-17T09:12:15;55.35;;;21.50;;
69188;SDS011;56302;52.322;5.926;2022-12-17T09:14:59;56.85;;;21.50;;
69188;SDS011;56302;52.322;5.926;2022-12-17T09:17:54;42.78;;;15.80;;
69188;SDS011;56302;52.322;5.926;2022-12-17T09:20:38;51.65;;;21.02;;
69188;SDS011;56302;52.322;5.926;2022-12-17T09:23:23;53.80;;;20.60;;
69188;SDS011;56302;52.322;5.926;2022-12-17T09:26:06;52.17;;;21.08;;
69188;SDS011;56302;52.322;5.926;2022-12-17T09:28:51;56.38;;;22.52;;
69188;SDS011;56302;52.322;5.926;2022-12-17T09:31:35;54.67;;;20.08;;
69188;SDS011;56302;52.322;5.926;2022-12-17T09:34:19;54.42;;;21.60;;
69188;SDS011;56302;52.322;5.926;2022-12-17T09:37:03;55.87;;;22.23;;
69188;SDS011;56302;52.322;5.926;2022-12-17T09:39:51;58.08;;;21.20;;
69188;SDS011;56302;52.322;5.926;2022-12-17T09:42:54;57.85;;;21.70;;
69188;SDS011;56302;52.322;5.926;2022-12-17T09:45:56;53.88;;;22.35;;
69188;SDS011;56302;52.322;5.926;2022-12-17T09:49:16;53.38;;;22.67;;
69188;SDS011;56302;52.322;5.926;2022-12-17T09:52:10;53.07;;;21.50;;
69188;SDS011;56302;52.322;5.926;2022-12-17T09:58:23;51.03;;;21.27;;
69188;SDS011;56302;52.322;5.926;2022-12-17T10:01:16;50.50;;;21.33;;
69188;SDS011;56302;52.322;5.926;2022-12-17T10:04:02;58.90;;;22.85;;
69188;SDS011;56302;52.322;5.926;2022-12-17T10:06:49;54.83;;;22.17;;
69188;SDS011;56302;52.322;5.926;2022-12-17T10:09:33;55.22;;;22.23;;
69188;SDS011;56302;52.322;5.926;2022-12-17T10:12:19;57.50;;;22.80;;
69188;SDS011;56302;52.322;5.926;2022-12-17T10:15:05;37.10;;;15.68;;
69188;SDS011;56302;52.322;5.926;2022-12-17T10:17:50;55.95;;;22.27;;
69188;SDS011;56302;52.322;5.926;2022-12-17T10:23:35;57.58;;;23.75;;
69188;SDS011;56302;52.322;5.926;2022-12-17T10:26:20;60.22;;;23.60;;
69188;SDS011;56302;52.322;5.926;2022-12-17T10:29:19;59.80;;;23.45;;
69188;SDS011;56302;52.322;5.926;2022-12-17T10:32:17;54.83;;;22.23;;
69188;SDS011;56302;52.322;5.926;2022-12-17T10:35:16;59.47;;;22.03;;
69188;SDS011;56302;52.322;5.926;2022-12-17T10:38:09;61.35;;;22.73;;
69188;SDS011;56302;52.322;5.926;2022-12-17T10:41:02;59.53;;;22.98;;
69188;SDS011;56302;52.322;5.926;2022-12-17T10:44:00;64.47;;;24.00;;
69188;SDS011;56302;52.322;5.926;2022-12-17T10:46:44;61.45;;;25.25;;
69188;SDS011;56302;52.322;5.926;2022-12-17T10:49:28;62.43;;;24.40;;
69188;SDS011;56302;52.322;5.926;2022-12-17T10:55:03;67.20;;;27.40;;
69188;SDS011;56302;52.322;5.926;2022-12-17T10:57:49;72.25;;;25.38;;
69188;SDS011;56302;52.322;5.926;2022-12-17T11:00:35;69.10;;;26.60;;
69188;SDS011;56302;52.322;5.926;2022-12-17T11:06:28;65.53;;;24.08;;
69188;SDS011;56302;52.322;5.926;2022-12-17T11:09:38;70.90;;;26.58;;
69188;SDS011;56302;52.322;5.926;2022-12-17T11:12:37;72.53;;;27.55;;
69188;SDS011;56302;52.322;5.926;2022-12-17T11:18:17;68.80;;;25.80;;
69188;SDS011;56302;52.322;5.926;2022-12-17T11:21:25;69.93;;;27.08;;
69188;SDS011;56302;52.322;5.926;2022-12-17T11:24:24;70.93;;;26.50;;
69188;SDS011;56302;52.322;5.926;2022-12-17T11:27:13;65.25;;;25.20;;
69188;SDS011;56302;52.322;5.926;2022-12-17T11:30:06;68.80;;;26.75;;
69188;SDS011;56302;52.322;5.926;2022-12-17T11:33:00;72.90;;;27.73;;
69188;SDS011;56302;52.322;5.926;2022-12-17T11:35:58;67.07;;;27.17;;
69188;SDS011;56302;52.322;5.926;2022-12-17T11:38:57;67.28;;;27.65;;
69188;SDS011;56302;52.322;5.926;2022-12-17T11:41:52;66.88;;;25.17;;
69188;SDS011;56302;52.322;5.926;2022-12-17T11:45:07;65.30;;;24.45;;
69188;SDS011;56302;52.322;5.926;2022-12-17T11:48:00;64.80;;;25.20;;
69188;SDS011;56302;52.322;5.926;2022-12-17T11:54:05;68.97;;;26.33;;
69188;SDS011;56302;52.322;5.926;2022-12-17T11:57:07;68.53;;;25.35;;
69188;SDS011;56302;52.322;5.926;2022-12-17T12:03:16;69.33;;;27.30;;
69188;SDS011;56302;52.322;5.926;2022-12-17T12:06:22;64.78;;;25.70;;
69188;SDS011;56302;52.322;5.926;2022-12-17T12:09:39;64.63;;;26.20;;
69188;SDS011;56302;52.322;5.926;2022-12-17T12:12:55;62.67;;;25.33;;
69188;SDS011;56302;52.322;5.926;2022-12-17T12:19:18;68.30;;;25.40;;
69188;SDS011;56302;52.322;5.926;2022-12-17T12:22:31;61.00;;;24.80;;
69188;SDS011;56302;52.322;5.926;2022-12-17T12:25:26;63.55;;;25.10;;
69188;SDS011;56302;52.322;5.926;2022-12-17T12:31:25;54.45;;;22.88;;
69188;SDS011;56302;52.322;5.926;2022-12-17T12:34:22;60.30;;;23.37;;
69188;SDS011;56302;52.322;5.926;2022-12-17T12:37:10;58.70;;;22.55;;
69188;SDS011;56302;52.322;5.926;2022-12-17T12:43:07;61.58;;;24.35;;
69188;SDS011;56302;52.322;5.926;2022-12-17T12:46:02;57.20;;;22.15;;
69188;SDS011;56302;52.322;5.926;2022-12-17T12:48:59;59.33;;;22.77;;
69188;SDS011;56302;52.322;5.926;2022-12-17T12:52:19;62.92;;;22.70;;
69188;SDS011;56302;52.322;5.926;2022-12-17T12:55:05;61.38;;;24.08;;
69188;SDS011;56302;52.322;5.926;2022-12-17T12:57:57;56.08;;;22.42;;
69188;SDS011;56302;52.322;5.926;2022-12-17T13:03:33;56.77;;;22.03;;
69188;SDS011;56302;52.322;5.926;2022-12-17T13:11:38;53.63;;;22.83;;
69188;SDS011;56302;52.322;5.926;2022-12-17T13:14:06;61.28;;;24.52;;
69188;SDS011;56302;52.322;5.926;2022-12-17T13:16:58;59.58;;;21.65;;
69188;SDS011;56302;52.322;5.926;2022-12-17T13:19:35;60.78;;;24.13;;
69188;SDS011;56302;52.322;5.926;2022-12-17T13:22:11;56.83;;;22.57;;
69188;SDS011;56302;52.322;5.926;2022-12-17T13:24:36;57.67;;;23.23;;
69188;SDS011;56302;52.322;5.926;2022-12-17T13:27:02;58.78;;;23.15;;
69188;SDS011;56302;52.322;5.926;2022-12-17T13:37:00;51.47;;;23.17;;
69188;SDS011;56302;52.322;5.926;2022-12-17T13:39:39;59.78;;;23.35;;
69188;SDS011;56302;52.322;5.926;2022-12-17T13:42:36;58.10;;;23.08;;
69188;SDS011;56302;52.322;5.926;2022-12-17T13:45:02;55.77;;;22.60;;
69188;SDS011;56302;52.322;5.926;2022-12-17T13:47:30;58.67;;;22.83;;
69188;SDS011;56302;52.322;5.926;2022-12-17T13:49:58;58.40;;;23.77;;
69188;SDS011;56302;52.322;5.926;2022-12-17T13:52:27;55.78;;;23.23;;
69188;SDS011;56302;52.322;5.926;2022-12-17T13:54:53;57.67;;;22.53;;
69188;SDS011;56302;52.322;5.926;2022-12-17T13:57:34;56.65;;;22.70;;
69188;SDS011;56302;52.322;5.926;2022-12-17T14:00:01;56.67;;;22.20;;
69188;SDS011;56302;52.322;5.926;2022-12-17T14:02:28;56.83;;;23.05;;
69188;SDS011;56302;52.322;5.926;2022-12-17T14:04:56;57.30;;;24.05;;
69188;SDS011;56302;52.322;5.926;2022-12-17T14:07:25;58.43;;;23.03;;
69188;SDS011;56302;52.322;5.926;2022-12-17T14:09:51;56.13;;;22.73;;
69188;SDS011;56302;52.322;5.926;2022-12-17T14:12:19;55.00;;;21.35;;
69188;SDS011;56302;52.322;5.926;2022-12-17T14:14:48;58.72;;;23.10;;
69188;SDS011;56302;52.322;5.926;2022-12-17T14:17:44;60.65;;;22.15;;
69188;SDS011;56302;52.322;5.926;2022-12-17T14:20:24;57.30;;;22.03;;
69188;SDS011;56302;52.322;5.926;2022-12-17T14:22:53;58.10;;;23.00;;
69188;SDS011;56302;52.322;5.926;2022-12-17T14:25:35;59.13;;;22.63;;
69188;SDS011;56302;52.322;5.926;2022-12-17T14:30:46;54.17;;;22.00;;
69188;SDS011;56302;52.322;5.926;2022-12-17T14:33:31;56.97;;;22.53;;
69188;SDS011;56302;52.322;5.926;2022-12-17T14:35:59;58.30;;;22.48;;
69188;SDS011;56302;52.322;5.926;2022-12-17T14:38:32;57.05;;;22.52;;
69188;SDS011;56302;52.322;5.926;2022-12-17T14:41:13;56.83;;;22.08;;
69188;SDS011;56302;52.322;5.926;2022-12-17T14:43:57;58.28;;;23.17;;
69188;SDS011;56302;52.322;5.926;2022-12-17T14:46:24;54.60;;;23.30;;
69188;SDS011;56302;52.322;5.926;2022-12-17T14:48:52;62.88;;;24.27;;
69188;SDS011;56302;52.322;5.926;2022-12-17T14:56:46;54.17;;;22.20;;
69188;SDS011;56302;52.322;5.926;2022-12-17T14:59:23;55.50;;;22.20;;
69188;SDS011;56302;52.322;5.926;2022-12-17T15:02:00;56.97;;;22.70;;
69188;SDS011;56302;52.322;5.926;2022-12-17T15:04:29;60.63;;;23.95;;
69188;SDS011;56302;52.322;5.926;2022-12-17T15:06:56;56.78;;;24.00;;
69188;SDS011;56302;52.322;5.926;2022-12-17T15:09:22;60.92;;;23.20;;
69188;SDS011;56302;52.322;5.926;2022-12-17T15:11:48;55.03;;;22.70;;
69188;SDS011;56302;52.322;5.926;2022-12-17T15:14:14;58.08;;;24.20;;
69188;SDS011;56302;52.322;5.926;2022-12-17T15:16:39;58.97;;;24.23;;
69188;SDS011;56302;52.322;5.926;2022-12-17T15:19:05;57.30;;;23.10;;
69188;SDS011;56302;52.322;5.926;2022-12-17T15:21:31;59.13;;;22.97;;
69188;SDS011;56302;52.322;5.926;2022-12-17T15:23:57;59.25;;;22.83;;
69188;SDS011;56302;52.322;5.926;2022-12-17T15:26:22;58.07;;;22.93;;
69188;SDS011;56302;52.322;5.926;2022-12-17T15:28:48;53.83;;;22.30;;
69188;SDS011;56302;52.322;5.926;2022-12-17T15:31:14;61.30;;;23.73;;
69188;SDS011;56302;52.322;5.926;2022-12-17T15:33:39;58.10;;;23.13;;
69188;SDS011;56302;52.322;5.926;2022-12-17T15:36:05;59.67;;;23.63;;
69188;SDS011;56302;52.322;5.926;2022-12-17T15:38:31;59.75;;;23.33;;
69188;SDS011;56302;52.322;5.926;2022-12-17T15:41:00;59.97;;;23.00;;
69188;SDS011;56302;52.322;5.926;2022-12-17T15:43:50;60.38;;;22.73;;
69188;SDS011;56302;52.322;5.926;2022-12-17T15:46:16;62.73;;;23.43;;
69188;SDS011;56302;52.322;5.926;2022-12-17T15:48:41;56.55;;;22.20;;
69188;SDS011;56302;52.322;5.926;2022-12-17T15:51:07;57.00;;;22.35;;
69188;SDS011;56302;52.322;5.926;2022-12-17T15:53:33;59.57;;;22.43;;
69188;SDS011;56302;52.322;5.926;2022-12-17T15:55:59;50.13;;;20.58;;
69188;SDS011;56302;52.322;5.926;2022-12-17T15:58:28;55.63;;;22.00;;
69188;SDS011;56302;52.322;5.926;2022-12-17T16:00:54;58.92;;;22.42;;
69188;SDS011;56302;52.322;5.926;2022-12-17T16:03:20;56.65;;;21.25;;
69188;SDS011;56302;52.322;5.926;2022-12-17T16:05:46;59.30;;;22.23;;
69188;SDS011;56302;52.322;5.926;2022-12-17T16:08:11;54.28;;;21.88;;
69188;SDS011;56302;52.322;5.926;2022-12-17T16:10:37;59.33;;;22.53;;
69188;SDS011;56302;52.322;5.926;2022-12-17T16:13:03;54.63;;;21.88;;
69188;SDS011;56302;52.322;5.926;2022-12-17T16:15:29;58.73;;;22.60;;
69188;SDS011;56302;52.322;5.926;2022-12-17T16:17:55;62.13;;;22.25;;
69188;SDS011;56302;52.322;5.926;2022-12-17T16:20:21;56.40;;;22.70;;
69188;SDS011;56302;52.322;5.926;2022-12-17T16:22:47;57.58;;;21.52;;
69188;SDS011;56302;52.322;5.926;2022-12-17T16:25:13;51.00;;;21.00;;
69188;SDS011;56302;52.322;5.926;2022-12-17T16:27:38;57.20;;;21.88;;
69188;SDS011;56302;52.322;5.926;2022-12-17T16:30:04;60.47;;;21.33;;
69188;SDS011;56302;52.322;5.926;2022-12-17T16:32:30;60.35;;;21.30;;
69188;SDS011;56302;52.322;5.926;2022-12-17T16:34:57;60.67;;;22.20;;
69188;SDS011;56302;52.322;5.926;2022-12-17T16:37:22;50.95;;;18.23;;
69188;SDS011;56302;52.322;5.926;2022-12-17T16:39:48;61.63;;;21.33;;
69188;SDS011;56302;52.322;5.926;2022-12-17T16:42:14;55.38;;;22.40;;
69188;SDS011;56302;52.322;5.926;2022-12-17T16:44:39;57.07;;;20.80;;
69188;SDS011;56302;52.322;5.926;2022-12-17T16:47:05;59.33;;;21.90;;
69188;SDS011;56302;52.322;5.926;2022-12-17T16:49:31;55.40;;;21.63;;
69188;SDS011;56302;52.322;5.926;2022-12-17T16:51:56;59.10;;;21.03;;
69188;SDS011;56302;52.322;5.926;2022-12-17T16:54:24;61.05;;;20.50;;
69188;SDS011;56302;52.322;5.926;2022-12-17T16:56:51;55.75;;;21.30;;
69188;SDS011;56302;52.322;5.926;2022-12-17T16:59:17;55.83;;;21.23;;
69188;SDS011;56302;52.322;5.926;2022-12-17T17:01:44;53.40;;;20.40;;